LiveATC.Net - Listen to live air traffic control over the Internet! Contact for advertising information

ICAO: KSTS  IATA: STS   Airport: Charles M. Schulz - Sonoma County Airport
City: Santa Rosa   State/Province: California
Country: United States   Continent: North America
KSTS METAR Weather: KSTS 050353Z AUTO 14006KT 10SM CLR 16/13 A2966 RMK AO2 SLP038 T01610133
KSTS Flight Activity (FlightAware)
KSTS Airport Info   (AirNav) (iFlightPlanner)
KSTS VFR Sectional Chart   (iFlightPlanner) 
KSTS IFR Low Chart   (iFlightPlanner) 
KSTS Tower
Feed Status: UP   Listeners: 2
Listen right in your browser - requires Flash (in browser, requires Flash)
Click here to listen with your own player (launches your MP3 player)
KSTS Tower Audio Archives
Santa Rosa Tower118.500

Sponsored by: North Coast Air


Unauthorized use prohibited. See Terms of Service

Find LiveATC Audio Streams

Airport/ARTCC Code

(e.g., 124.400, 128.75)
Site-wide search

Browse LiveATC Feeds
LiveATC Coverage Map
Top 50 LiveATC Feeds
Bad Weather Areas

Offer a LiveATC Feed
Press Inquiries

LiveATC on iPhone
LiveATC on Android

LiveATC Mobile
(Mobile browser)

ATC Audio Archives
Interesting Recordings

LiveATC Forums

Home Page
Make a Donation
LiveATC Bookstore

Terms of Use
Privacy Policy

ATC/Radar Sites
U.S. ARTCC Freqs
Canadian Air Freqs


FAA Airport Status
Nat'l Airspace Status
Arrival Demand Charts

Server Software By:

Please make a donation to help us keep growing!